createdAt,value
2018-07-09T00:00:44.300Z,98186.58
2018-07-09T00:03:14.334Z,98188.61
2018-07-09T00:05:45.248Z,98186.58
2018-07-09T00:08:14.555Z,98224.13
2018-07-09T00:11:03.438Z,98202.81
2018-07-09T00:13:32.866Z,98178.47
2018-07-09T00:16:01.706Z,98229.20
2018-07-09T00:18:30.345Z,98206.88
2018-07-09T00:20:58.832Z,98204.84
2018-07-09T00:23:27.384Z,98218.03
2018-07-09T00:25:56.650Z,98237.32
2018-07-09T00:28:25.545Z,98217.02
2018-07-09T00:30:54.060Z,98236.30
2018-07-09T00:33:22.944Z,98268.78
2018-07-09T00:35:51.442Z,98262.69
2018-07-09T00:38:20.585Z,98258.63
2018-07-09T00:40:49.112Z,98287.05
2018-07-09T00:43:18.291Z,98318.50
2018-07-09T00:45:46.820Z,98263.70
2018-07-09T00:48:15.317Z,98262.69
2018-07-09T00:50:43.807Z,98317.48
2018-07-09T00:53:12.341Z,98340.83
2018-07-09T00:55:40.849Z,98320.53
2018-07-09T00:58:09.349Z,98339.81
2018-07-09T01:00:38.021Z,98321.55
2018-07-09T01:03:06.528Z,98330.68
2018-07-09T01:05:35.016Z,98307.34
2018-07-09T01:08:04.553Z,98346.91
2018-07-09T01:10:33.433Z,98391.57
2018-07-09T01:13:01.910Z,98369.24
2018-07-09T01:15:30.424Z,98376.34
2018-07-09T01:17:58.893Z,98368.23
2018-07-09T01:20:28.015Z,98360.11
2018-07-09T01:22:56.432Z,98399.69
2018-07-09T01:25:24.946Z,98383.45
2018-07-09T01:27:53.768Z,98379.39
2018-07-09T01:30:22.267Z,98382.44
2018-07-09T01:32:50.911Z,98393.59
2018-07-09T01:35:19.799Z,98397.66
2018-07-09T01:37:48.311Z,98382.44
2018-07-09T01:40:16.774Z,98424.05
2018-07-09T01:42:45.268Z,98411.86
2018-07-09T01:45:13.769Z,98415.92
2018-07-09T01:47:42.271Z,98414.91
2018-07-09T01:50:10.772Z,98465.66
2018-07-09T01:52:39.268Z,98422.02
2018-07-09T01:55:07.808Z,98415.92
2018-07-09T01:57:36.413Z,98407.80
2018-07-09T02:00:05.195Z,98456.52
2018-07-09T02:02:33.714Z,98440.28
2018-07-09T02:05:02.165Z,98446.37
2018-07-09T02:07:30.633Z,98435.20
2018-07-09T02:09:59.116Z,98462.61
2018-07-09T02:12:27.591Z,98473.77
2018-07-09T02:14:56.096Z,98480.88
2018-07-09T02:17:24.642Z,98485.95
2018-07-09T02:19:53.143Z,98489.00
2018-07-09T02:22:21.688Z,98472.75
2018-07-09T02:24:50.219Z,98484.94
2018-07-09T02:27:18.739Z,98483.92
2018-07-09T02:29:47.245Z,98505.23
2018-07-09T02:32:15.732Z,98509.29
2018-07-09T02:34:44.237Z,98495.08
2018-07-09T02:37:12.752Z,98463.63
2018-07-09T02:39:41.472Z,98457.53
2018-07-09T02:42:09.963Z,98441.30
2018-07-09T02:44:38.503Z,98440.28
2018-07-09T02:47:07.085Z,98410.85
2018-07-09T02:49:35.561Z,98445.35
2018-07-09T02:52:04.068Z,98428.10
2018-07-09T02:54:32.602Z,98418.97
2018-07-09T02:57:01.097Z,98450.43
2018-07-09T02:59:29.561Z,98450.43
2018-07-09T03:01:58.070Z,98446.37
2018-07-09T03:04:26.538Z,98473.77
2018-07-09T03:06:55.079Z,98469.71
2018-07-09T03:09:23.573Z,98475.80
2018-07-09T03:11:52.070Z,98493.05
2018-07-09T03:14:20.793Z,98450.43
2018-07-09T03:16:49.412Z,98462.61
2018-07-09T03:19:18.027Z,98460.58
2018-07-09T03:21:46.890Z,98406.80
2018-07-09T03:24:15.823Z,98410.85
2018-07-09T03:26:44.301Z,98417.95
2018-07-09T03:29:13.113Z,98368.23
2018-07-09T03:31:41.595Z,98365.19
2018-07-09T03:34:10.113Z,98363.16
2018-07-09T03:36:38.681Z,98365.19
2018-07-09T03:39:07.187Z,98365.19
2018-07-09T03:41:35.678Z,98378.37
2018-07-09T03:44:04.223Z,98364.17
2018-07-09T03:46:32.837Z,98356.05
2018-07-09T03:49:01.383Z,98371.27
2018-07-09T03:51:30.041Z,98335.75
2018-07-09T03:53:58.570Z,98339.81
2018-07-09T03:56:27.685Z,98311.40
2018-07-09T03:58:56.192Z,98306.33
2018-07-09T04:01:24.838Z,98307.34
2018-07-09T04:03:53.381Z,98302.27
2018-07-09T04:06:21.890Z,98275.88
2018-07-09T04:08:50.516Z,98295.16
2018-07-09T04:11:19.087Z,98262.69
2018-07-09T04:13:47.604Z,98218.03
2018-07-09T04:16:16.147Z,98273.85
2018-07-09T04:18:44.959Z,98291.11
2018-07-09T04:21:13.616Z,98249.50
2018-07-09T04:23:42.110Z,98267.77
2018-07-09T04:26:10.681Z,98241.37
2018-07-09T04:28:39.162Z,98225.14
2018-07-09T04:31:07.718Z,98196.73
2018-07-09T04:33:36.242Z,98206.88
2018-07-09T04:36:05.145Z,98127.73
2018-07-09T04:38:33.663Z,98151.06
2018-07-09T04:41:02.169Z,98183.53
2018-07-09T04:43:30.664Z,98158.17
2018-07-09T04:45:59.157Z,98095.25
2018-07-09T04:48:27.990Z,98002.91
2018-07-09T04:50:56.570Z,98006.97
2018-07-09T04:53:25.058Z,98042.48
2018-07-09T04:55:53.554Z,98080.03
2018-07-09T04:58:22.039Z,98036.40
2018-07-09T05:00:50.545Z,98045.53
2018-07-09T05:03:19.187Z,98073.95
2018-07-09T05:05:47.724Z,98041.47
2018-07-09T05:08:16.249Z,98020.16
2018-07-09T05:10:44.786Z,97998.86
2018-07-09T05:13:13.313Z,97984.65
2018-07-09T05:15:41.834Z,97981.61
2018-07-09T05:18:10.433Z,97944.06
2018-07-09T05:20:39.043Z,97882.17
2018-07-09T05:23:07.782Z,97796.94
2018-07-09T05:25:36.299Z,97694.45
2018-07-09T05:28:04.883Z,97775.63
2018-07-09T05:30:33.432Z,97889.27
2018-07-09T05:33:01.921Z,97934.93
2018-07-09T05:35:30.445Z,97889.27
2018-07-09T05:37:58.937Z,97885.21
2018-07-09T05:40:27.965Z,97853.75
2018-07-09T05:42:56.536Z,97803.02
2018-07-09T05:45:25.041Z,97819.26
2018-07-09T05:47:53.758Z,97772.58
2018-07-09T05:50:22.438Z,97830.42
2018-07-09T05:52:50.978Z,97783.75
2018-07-09T05:55:19.578Z,97763.45
2018-07-09T05:57:48.113Z,97690.40
2018-07-09T06:00:17.046Z,97629.52
2018-07-09T06:02:45.578Z,97652.86
2018-07-09T06:05:14.075Z,97620.39
2018-07-09T06:07:42.697Z,97666.05
2018-07-09T06:10:11.198Z,97687.36
2018-07-09T06:12:39.846Z,97572.70
2018-07-09T06:15:08.410Z,97572.70
2018-07-09T06:17:36.971Z,97597.05
2018-07-09T06:20:05.558Z,97529.08
2018-07-09T06:22:34.224Z,97501.69
2018-07-09T06:25:02.750Z,97334.28
2018-07-09T06:27:31.305Z,97314.00
2018-07-09T06:29:59.858Z,97448.93
2018-07-09T06:32:28.342Z,97444.87
2018-07-09T06:34:56.968Z,97481.39
2018-07-09T06:37:26.315Z,97327.19
2018-07-09T06:39:54.847Z,97379.94
2018-07-09T06:42:23.411Z,97394.14
2018-07-09T06:44:52.110Z,97297.77
2018-07-09T06:47:20.637Z,97094.88
2018-07-09T06:49:49.361Z,97131.39
2018-07-09T06:52:17.989Z,97307.91
2018-07-09T06:54:46.481Z,97200.38
2018-07-09T06:57:14.978Z,97302.84
2018-07-09T06:59:43.526Z,97348.48
2018-07-09T07:02:12.077Z,97277.47
2018-07-09T07:04:40.636Z,97247.03
2018-07-09T07:07:09.202Z,97354.58
2018-07-09T07:09:37.716Z,97404.29
2018-07-09T07:12:06.294Z,97337.33
2018-07-09T07:14:34.876Z,97206.46
2018-07-09T07:17:03.406Z,97201.39
2018-07-09T07:19:31.927Z,97160.81
2018-07-09T07:22:00.868Z,97133.42
2018-07-09T07:24:30.417Z,97130.38
2018-07-09T07:26:59.802Z,97143.56
2018-07-09T07:29:28.594Z,97129.36
2018-07-09T07:31:57.166Z,97190.23
2018-07-09T07:34:25.661Z,97052.27
2018-07-09T07:36:54.263Z,97027.92
2018-07-09T07:39:22.826Z,97178.05
2018-07-09T07:41:52.094Z,97044.15
2018-07-09T07:44:20.663Z,96924.45
2018-07-09T07:46:49.194Z,96949.80
2018-07-09T07:49:17.714Z,97037.05
2018-07-09T07:51:46.543Z,97140.52
2018-07-09T07:54:15.046Z,97136.46
2018-07-09T07:56:43.561Z,97073.56
2018-07-09T07:59:12.099Z,97080.67
2018-07-09T08:01:40.689Z,97093.86
2018-07-09T08:04:09.382Z,97139.50
2018-07-09T08:06:38.070Z,97107.04
2018-07-09T08:09:06.769Z,97136.46
2018-07-09T08:11:48.560Z,97116.17
2018-07-09T08:14:03.984Z,97093.86
2018-07-09T08:16:32.674Z,97064.44
2018-07-09T08:19:01.215Z,97049.22
2018-07-09T08:21:29.877Z,97032.98
2018-07-09T08:23:58.529Z,97006.61
2018-07-09T08:26:26.937Z,96954.88
2018-07-09T08:28:55.475Z,96934.59
2018-07-09T08:31:24.048Z,96979.22
2018-07-09T08:33:52.591Z,96982.27
2018-07-09T08:36:21.170Z,96946.77
2018-07-09T08:38:49.693Z,96924.45
2018-07-09T08:41:18.212Z,96912.27
2018-07-09T08:43:46.722Z,96777.36
2018-07-09T08:46:16.248Z,96614.05
2018-07-09T08:48:45.470Z,96847.35
2018-07-09T08:51:13.966Z,96677.95
2018-07-09T08:53:42.458Z,96611.02
2018-07-09T08:56:11.354Z,96722.59
2018-07-09T08:58:39.994Z,96787.51
2018-07-09T09:01:08.690Z,96816.92
2018-07-09T09:03:37.224Z,96853.44
2018-07-09T09:06:05.717Z,96769.25
2018-07-09T09:08:34.753Z,96681.00
2018-07-09T09:11:03.282Z,96666.80
2018-07-09T09:13:31.844Z,96640.42
2018-07-09T09:16:00.414Z,96779.39
2018-07-09T09:18:28.967Z,96682.02
2018-07-09T09:20:57.491Z,96776.34
2018-07-09T09:23:26.060Z,96749.97
2018-07-09T09:25:54.581Z,96557.25
2018-07-09T09:28:23.141Z,96447.72
2018-07-09T09:30:51.734Z,96338.17
2018-07-09T09:33:20.226Z,96554.21
2018-07-09T09:35:48.935Z,96607.97
2018-07-09T09:38:18.051Z,96704.33
2018-07-09T09:40:46.535Z,96794.61
2018-07-09T09:43:15.067Z,96921.41
2018-07-09T09:45:43.570Z,96851.41
2018-07-09T09:48:12.038Z,96794.61
2018-07-09T09:50:40.707Z,96760.12
2018-07-09T09:53:09.230Z,96704.33
2018-07-09T09:55:38.085Z,96457.86
2018-07-09T09:58:07.635Z,96292.54
2018-07-09T10:00:41.287Z,96266.17
2018-07-09T10:03:09.859Z,96328.03
2018-07-09T10:05:38.415Z,96382.80
2018-07-09T10:08:06.935Z,96312.82
2018-07-09T10:10:35.450Z,96425.40
2018-07-09T10:13:03.947Z,96529.88
2018-07-09T10:15:32.822Z,96636.38
2018-07-09T10:18:01.285Z,96666.80
2018-07-09T10:20:29.799Z,96734.76
2018-07-09T10:22:58.388Z,96767.22
2018-07-09T10:25:26.850Z,96641.44
2018-07-09T10:27:55.443Z,96394.97
2018-07-09T10:30:23.979Z,96287.47
2018-07-09T10:32:52.523Z,96393.96
2018-07-09T10:35:21.619Z,96304.70
2018-07-09T10:37:50.173Z,96185.03
2018-07-09T10:40:18.669Z,96319.92
2018-07-09T10:42:47.293Z,96424.39
2018-07-09T10:45:16.611Z,96439.60
2018-07-09T10:47:45.137Z,96474.09
2018-07-09T10:50:13.670Z,96367.59
2018-07-09T10:52:42.159Z,96543.05
2018-07-09T10:55:10.752Z,96418.30
2018-07-09T10:57:39.281Z,96312.82
2018-07-09T11:00:07.841Z,96297.61
2018-07-09T11:02:36.458Z,96380.77
2018-07-09T11:05:05.029Z,96626.23
2018-07-09T11:07:33.540Z,96573.48
2018-07-09T11:10:02.092Z,96502.48
2018-07-09T11:12:30.712Z,96486.25
2018-07-09T11:14:59.212Z,96441.63
2018-07-09T11:17:27.783Z,96355.42
2018-07-09T11:19:56.321Z,96418.30
2018-07-09T11:22:25.058Z,96487.27
2018-07-09T11:24:53.603Z,96363.53
2018-07-09T11:27:22.105Z,96411.20
2018-07-09T11:29:50.900Z,96437.57
2018-07-09T11:32:19.516Z,96342.23
2018-07-09T11:34:48.028Z,96276.31
2018-07-09T11:37:17.643Z,96263.12
2018-07-09T11:39:46.125Z,96199.23
2018-07-09T11:42:14.701Z,96311.80
2018-07-09T11:44:43.210Z,96132.30
2018-07-09T11:47:11.713Z,96113.03
2018-07-09T11:49:40.218Z,96150.55
2018-07-09T11:52:08.851Z,96107.95
2018-07-09T11:54:37.385Z,96362.52
2018-07-09T11:57:07.438Z,96199.23
2018-07-09T11:59:36.007Z,96159.67
2018-07-09T12:02:04.541Z,96265.16
2018-07-09T12:04:33.045Z,96232.70
2018-07-09T12:07:01.553Z,96279.35
2018-07-09T12:09:30.535Z,96280.37
2018-07-09T12:12:00.100Z,96131.28
2018-07-09T12:14:28.574Z,95988.29
2018-07-09T12:16:57.114Z,96040.01
2018-07-09T12:19:26.200Z,96227.63
2018-07-09T12:21:54.714Z,96222.56
2018-07-09T12:24:23.436Z,96227.63
2018-07-09T12:27:08.678Z,96293.55
2018-07-09T12:29:37.302Z,96148.52
2018-07-09T12:32:05.969Z,96245.88
2018-07-09T12:34:34.647Z,96332.09
2018-07-09T12:37:03.321Z,96247.91
2018-07-09T12:39:32.194Z,96266.17
2018-07-09T12:42:00.780Z,96273.27
2018-07-09T12:44:29.600Z,96319.92
2018-07-09T12:46:58.326Z,96333.11
2018-07-09T12:49:27.457Z,96318.91
2018-07-09T12:51:56.451Z,96376.72
2018-07-09T12:54:25.221Z,96420.33
2018-07-09T12:56:54.065Z,96416.27
2018-07-09T12:59:22.685Z,96400.05
2018-07-09T13:01:51.427Z,96427.43
2018-07-09T13:04:20.374Z,96456.84
2018-07-09T13:06:49.088Z,96429.45
2018-07-09T13:09:17.734Z,96537.98
2018-07-09T13:11:46.430Z,96587.69
2018-07-09T13:14:15.373Z,96641.44
2018-07-09T13:16:43.916Z,96941.69
2018-07-09T13:19:12.622Z,97081.69
2018-07-09T13:21:41.247Z,97072.55
2018-07-09T13:24:10.225Z,96992.41
2018-07-09T13:26:39.134Z,96923.43
2018-07-09T13:29:08.114Z,96922.41
2018-07-09T13:31:38.275Z,96959.95
2018-07-09T13:34:06.954Z,96997.48
2018-07-09T13:36:35.556Z,96929.52
2018-07-09T13:39:05.166Z,96923.43
2018-07-09T13:41:33.942Z,96880.83
2018-07-09T13:44:02.678Z,96747.95
2018-07-09T13:46:31.758Z,96719.55
2018-07-09T13:49:00.465Z,96798.66
2018-07-09T13:51:29.301Z,96769.25
2018-07-09T13:53:58.138Z,96728.67
2018-07-09T13:56:27.294Z,96769.25
2018-07-09T13:58:56.138Z,96729.69
2018-07-09T14:01:24.837Z,96710.41
2018-07-09T14:03:53.893Z,96721.58
2018-07-09T14:06:22.825Z,96650.57
2018-07-09T14:08:51.810Z,96717.52
2018-07-09T14:11:20.497Z,96813.88
2018-07-09T14:13:49.286Z,96710.41
2018-07-09T14:16:18.065Z,96655.64
2018-07-09T14:18:46.850Z,96677.95
2018-07-09T14:21:15.615Z,96668.83
2018-07-09T14:23:44.452Z,96670.86
2018-07-09T14:26:13.057Z,96581.59
2018-07-09T14:28:41.799Z,96612.03
2018-07-09T14:31:10.707Z,96625.21
2018-07-09T14:33:39.441Z,96692.16
2018-07-09T14:36:08.206Z,96660.72
2018-07-09T14:38:36.943Z,96666.80
2018-07-09T14:41:05.825Z,96708.39
2018-07-09T14:43:34.650Z,96741.86
2018-07-09T14:46:03.401Z,96783.45
2018-07-09T14:48:32.347Z,96705.34
2018-07-09T14:51:01.290Z,96789.53
2018-07-09T14:53:30.513Z,96727.66
2018-07-09T14:55:59.422Z,96816.92
2018-07-09T14:58:28.406Z,96903.14
2018-07-09T15:00:57.105Z,96951.83
2018-07-09T15:03:26.006Z,96918.36
2018-07-09T15:05:54.629Z,96925.46
2018-07-09T15:08:23.255Z,97107.04
2018-07-09T15:10:51.993Z,97307.91
2018-07-09T15:13:20.730Z,97440.81
2018-07-09T15:15:49.547Z,97484.44
2018-07-09T15:18:18.322Z,97445.89
2018-07-09T15:20:47.093Z,97436.75
2018-07-09T15:23:15.822Z,97451.97
2018-07-09T15:25:44.543Z,97438.78
2018-07-09T15:28:13.147Z,97420.52
2018-07-09T15:30:41.903Z,97473.27
2018-07-09T15:33:10.741Z,97452.98
2018-07-09T15:35:39.344Z,97414.43
2018-07-09T15:38:08.050Z,97497.62
2018-07-09T15:40:37.460Z,97534.16
2018-07-09T15:43:06.314Z,97505.74
2018-07-09T15:45:35.112Z,97489.52
2018-07-09T15:48:04.357Z,97512.84
2018-07-09T15:50:33.040Z,97538.20
2018-07-09T15:53:01.634Z,97553.42
2018-07-09T15:55:30.446Z,97546.33
2018-07-09T15:57:59.366Z,97527.05
2018-07-09T16:00:28.169Z,97491.54
2018-07-09T16:02:56.853Z,97489.52
2018-07-09T16:05:25.559Z,97461.10
2018-07-09T16:07:54.416Z,97517.92
2018-07-09T16:10:23.154Z,97519.95
2018-07-09T16:12:51.776Z,97550.38
2018-07-09T16:15:20.582Z,97538.20
2018-07-09T16:17:49.442Z,97576.77
2018-07-09T16:20:18.218Z,97557.48
2018-07-09T16:22:46.966Z,97483.42
2018-07-09T16:25:15.645Z,97505.74
2018-07-09T16:27:44.392Z,97489.52
2018-07-09T16:30:13.255Z,97540.23
2018-07-09T16:32:41.929Z,97490.52
2018-07-09T16:35:10.738Z,97445.89
2018-07-09T16:37:39.358Z,97394.14
2018-07-09T16:40:08.147Z,97454.00
2018-07-09T16:42:37.167Z,97515.89
2018-07-09T16:45:05.975Z,97526.03
2018-07-09T16:47:34.698Z,97519.95
2018-07-09T16:50:03.522Z,97503.72
2018-07-09T16:52:32.275Z,97464.14
2018-07-09T16:55:01.163Z,97484.44
2018-07-09T16:57:29.735Z,97527.05
2018-07-09T16:59:58.372Z,97493.56
2018-07-09T17:02:27.018Z,97489.52
2018-07-09T17:04:55.866Z,97498.64
2018-07-09T17:07:24.720Z,97481.39
2018-07-09T17:09:53.482Z,97441.83
2018-07-09T17:12:22.102Z,97471.25
2018-07-09T17:14:50.942Z,97496.61
2018-07-09T17:17:19.776Z,97468.20
2018-07-09T17:19:48.458Z,97281.53
2018-07-09T17:22:17.395Z,97439.80
2018-07-09T17:24:46.053Z,97459.07
2018-07-09T17:27:15.098Z,97459.07
2018-07-09T17:29:43.972Z,97484.44
2018-07-09T17:32:12.592Z,97478.34
2018-07-09T17:34:41.364Z,97431.68
2018-07-09T17:37:10.234Z,97442.84
2018-07-09T17:39:39.163Z,97441.83
2018-07-09T17:42:08.145Z,97467.19
2018-07-09T17:44:37.134Z,97485.45
2018-07-09T17:47:05.924Z,97456.03
2018-07-09T17:49:34.902Z,97525.02
2018-07-09T17:52:03.589Z,97551.40
2018-07-09T17:54:32.616Z,97536.18
2018-07-09T17:57:01.288Z,97518.94
2018-07-09T17:59:30.031Z,97537.20
2018-07-09T18:01:59.060Z,97537.20
2018-07-09T18:04:28.400Z,97514.88
2018-07-09T18:06:57.410Z,97551.40
2018-07-09T18:09:26.250Z,97530.09
2018-07-09T18:11:55.227Z,97522.98
2018-07-09T18:14:24.178Z,97591.98
2018-07-09T18:16:52.894Z,97572.70
2018-07-09T18:19:21.686Z,97584.87
2018-07-09T18:21:50.873Z,97596.04
2018-07-09T18:24:19.600Z,97593.00
2018-07-09T18:26:48.495Z,97558.50
2018-07-09T18:29:17.436Z,97617.34
2018-07-09T18:31:46.423Z,97617.34
2018-07-09T18:34:15.587Z,97626.48
2018-07-09T18:36:44.764Z,97650.83
2018-07-09T18:39:14.448Z,97622.42
2018-07-09T18:41:44.487Z,97644.74
2018-07-09T18:44:14.498Z,97637.64
2018-07-09T18:46:44.792Z,97590.97
2018-07-09T18:49:14.510Z,97584.87
2018-07-09T18:51:44.386Z,97575.75
2018-07-09T18:54:14.669Z,97590.97
2018-07-09T18:56:44.724Z,97608.22
2018-07-09T18:59:14.543Z,97591.98
2018-07-09T19:01:46.466Z,97643.73
2018-07-09T19:04:17.168Z,97612.27
2018-07-09T19:07:00.698Z,97641.70
2018-07-09T19:09:32.046Z,97616.33
2018-07-09T19:12:05.045Z,97637.64
2018-07-09T19:14:40.666Z,97686.34
2018-07-09T19:18:22.780Z,97687.36
2018-07-09T19:21:33.104Z,97657.93
2018-07-09T19:24:03.140Z,97683.30
2018-07-09T19:26:31.963Z,97654.88
2018-07-09T19:29:00.528Z,97705.62
2018-07-09T19:31:29.024Z,97688.37
2018-07-09T19:33:57.593Z,97695.47
2018-07-09T19:36:25.814Z,97733.02
2018-07-09T19:38:53.492Z,97780.70
2018-07-09T19:41:21.757Z,97729.97
2018-07-09T19:43:50.168Z,97766.49
2018-07-09T19:46:17.946Z,97800.99
2018-07-09T19:48:45.339Z,97773.59
2018-07-09T19:51:12.720Z,97773.59
2018-07-09T19:53:40.241Z,97764.47
2018-07-09T19:56:07.658Z,97756.35
2018-07-09T19:58:35.203Z,97791.86
2018-07-09T20:01:02.969Z,97810.12
2018-07-09T20:03:30.392Z,97769.54
2018-07-09T20:05:57.756Z,97758.38
2018-07-09T20:08:30.378Z,97825.34
2018-07-09T20:11:03.006Z,97808.09
2018-07-09T20:14:33.197Z,97814.19
2018-07-09T20:17:05.643Z,97783.75
2018-07-09T20:19:34.847Z,97849.70
2018-07-09T20:22:02.236Z,97845.64
2018-07-09T20:24:29.590Z,97864.91
2018-07-09T20:26:57.965Z,97910.58
2018-07-09T20:29:25.633Z,97899.41
2018-07-09T20:31:53.026Z,97913.63
2018-07-09T20:34:20.398Z,97907.53
2018-07-09T20:36:48.048Z,97926.81
2018-07-09T20:39:15.362Z,97873.03
2018-07-09T20:41:42.730Z,97945.08
2018-07-09T20:44:10.183Z,97954.21
2018-07-09T20:46:37.604Z,97929.86
2018-07-09T20:49:05.093Z,97891.30
2018-07-09T20:51:32.487Z,97947.11
2018-07-09T20:53:59.887Z,97958.27
2018-07-09T20:56:29.446Z,97895.36
2018-07-09T20:58:56.902Z,97943.05
2018-07-09T21:01:24.326Z,97929.86
2018-07-09T21:03:55.742Z,97964.36
2018-07-09T21:06:23.201Z,97908.55
2018-07-09T21:08:50.522Z,97928.84
2018-07-09T21:11:19.488Z,97929.86
2018-07-09T21:13:46.913Z,97966.38
2018-07-09T21:16:14.454Z,97968.41
2018-07-09T21:18:41.777Z,97936.95
2018-07-09T21:21:09.111Z,97920.72
2018-07-09T21:23:36.445Z,97938.98
2018-07-09T21:26:03.858Z,97999.88
2018-07-09T21:28:31.323Z,97964.36
2018-07-09T21:30:59.100Z,98012.05
2018-07-09T21:33:26.495Z,97973.48
2018-07-09T21:35:53.830Z,97949.13
2018-07-09T21:38:21.596Z,97964.36
2018-07-09T21:40:48.889Z,97962.33
2018-07-09T21:43:16.200Z,97982.63
2018-07-09T21:45:43.886Z,98009.00
2018-07-09T21:48:11.185Z,98017.12
2018-07-09T21:50:39.941Z,98018.13
2018-07-09T21:53:07.329Z,98019.15
2018-07-09T21:55:34.798Z,98050.60
2018-07-09T21:58:03.839Z,98026.25
2018-07-09T22:00:31.356Z,98021.17
2018-07-09T22:02:58.834Z,98057.70
2018-07-09T22:05:26.795Z,98085.11
2018-07-09T22:07:54.168Z,98051.63
2018-07-09T22:10:21.475Z,98067.86
2018-07-09T22:12:48.877Z,98042.48
2018-07-09T22:15:16.225Z,98039.45
2018-07-09T22:17:44.362Z,98043.50
2018-07-09T22:20:11.675Z,98074.95
2018-07-09T22:22:39.063Z,98078.00
2018-07-09T22:25:06.439Z,98060.75
2018-07-09T22:27:33.730Z,98085.11
2018-07-09T22:30:00.998Z,98096.27
2018-07-09T22:32:29.574Z,98086.13
2018-07-09T22:34:58.018Z,98083.08
2018-07-09T22:37:26.558Z,98107.43
2018-07-09T22:39:55.046Z,98045.53
2018-07-09T22:42:23.505Z,98062.78
2018-07-09T22:44:52.046Z,98071.91
2018-07-09T22:47:20.538Z,98078.00
2018-07-09T22:49:50.010Z,98101.34
2018-07-09T22:52:18.526Z,98074.95
2018-07-09T22:54:47.456Z,98081.05
2018-07-09T22:57:15.948Z,98043.50
2018-07-09T22:59:44.487Z,98079.02
2018-07-09T23:02:13.230Z,98059.73
2018-07-09T23:04:42.641Z,98089.16
2018-07-09T23:07:11.133Z,98098.30
2018-07-09T23:11:02.432Z,98137.88
2018-07-09T23:13:42.906Z,98175.42
2018-07-09T23:16:50.692Z,98205.86
2018-07-09T23:19:35.334Z,98157.16
2018-07-09T23:22:18.275Z,98192.67
2018-07-09T23:24:46.165Z,98155.13
2018-07-09T23:27:13.771Z,98138.89
2018-07-09T23:29:41.143Z,98184.55
2018-07-09T23:32:08.462Z,98191.66
2018-07-09T23:34:35.812Z,98170.34
2018-07-09T23:37:03.074Z,98195.72
2018-07-09T23:39:30.349Z,98139.91
2018-07-09T23:41:57.730Z,98179.48
2018-07-09T23:44:25.607Z,98163.23
2018-07-09T23:46:53.331Z,98221.09
2018-07-09T23:49:21.228Z,98194.70
2018-07-09T23:51:48.557Z,98211.95
2018-07-09T23:54:15.824Z,98202.81
2018-07-09T23:59:26.930Z,98225.14
